createdAt,value
2022-09-30T00:02:18.319Z,4.10
2022-09-30T00:07:21.239Z,4.35
2022-09-30T00:12:23.853Z,3.53
2022-09-30T00:17:28.281Z,3.75
2022-09-30T00:22:30.904Z,3.60
2022-09-30T00:27:33.483Z,3.90
2022-09-30T00:32:37.603Z,3.38
2022-09-30T00:37:40.485Z,3.53
2022-09-30T00:42:43.171Z,3.75
2022-09-30T00:47:54.509Z,3.67
2022-09-30T00:53:01.682Z,3.20
2022-09-30T00:58:05.595Z,3.42
2022-09-30T01:03:09.583Z,3.35
2022-09-30T01:08:12.565Z,3.22
2022-09-30T01:13:17.860Z,3.38
2022-09-30T01:18:28.516Z,3.33
2022-09-30T01:23:54.942Z,3.13
2022-09-30T01:29:11.075Z,2.92
2022-09-30T01:34:19.484Z,2.85
2022-09-30T01:39:34.132Z,2.50
2022-09-30T01:44:39.548Z,3.10
2022-09-30T01:49:46.831Z,2.85
2022-09-30T01:54:53.105Z,2.53
2022-09-30T01:59:58.557Z,2.40
2022-09-30T02:05:04.722Z,2.85
2022-09-30T02:10:11.303Z,2.70
2022-09-30T02:15:16.575Z,2.67
2022-09-30T02:20:23.437Z,2.83
2022-09-30T02:25:29.143Z,2.90
2022-09-30T02:30:32.922Z,2.95
2022-09-30T02:35:38.531Z,3.00
2022-09-30T02:40:45.079Z,2.78
2022-09-30T02:45:52.053Z,2.63
2022-09-30T02:51:01.364Z,2.58
2022-09-30T02:56:10.417Z,2.78
2022-09-30T03:01:14.523Z,2.10
2022-09-30T03:06:19.345Z,3.10
2022-09-30T03:11:24.408Z,2.95
2022-09-30T03:16:37.351Z,2.47
2022-09-30T03:21:52.813Z,2.78
2022-09-30T03:27:01.579Z,2.88
2022-09-30T03:32:11.950Z,3.20
2022-09-30T03:37:20.962Z,4.57
2022-09-30T03:42:27.071Z,4.03
2022-09-30T03:47:32.833Z,3.83
2022-09-30T03:52:37.358Z,4.13
2022-09-30T03:57:39.995Z,4.00
2022-09-30T04:02:43.000Z,5.35
2022-09-30T04:07:47.250Z,4.50
2022-09-30T04:12:49.839Z,3.88
2022-09-30T04:17:52.433Z,3.83
2022-09-30T04:22:58.128Z,3.72
2022-09-30T04:28:00.730Z,4.32
2022-09-30T04:33:03.472Z,3.60
2022-09-30T04:38:07.674Z,3.55
2022-09-30T04:43:10.284Z,4.10
2022-09-30T04:48:12.954Z,3.38
2022-09-30T04:53:17.489Z,3.92
2022-09-30T04:58:20.058Z,3.70
2022-09-30T05:03:22.816Z,4.82
2022-09-30T05:08:26.844Z,5.07
2022-09-30T05:13:32.531Z,4.00
2022-09-30T05:18:37.081Z,4.30
2022-09-30T05:23:41.152Z,3.88
2022-09-30T05:28:43.891Z,3.78
2022-09-30T05:33:46.855Z,3.90
2022-09-30T05:38:53.272Z,3.97
2022-09-30T05:43:55.914Z,3.35
2022-09-30T05:48:58.577Z,5.85
2022-09-30T05:54:02.629Z,3.80
2022-09-30T05:59:05.541Z,3.72
2022-09-30T06:04:08.238Z,4.05
2022-09-30T06:09:12.251Z,3.85
2022-09-30T06:14:16.894Z,3.47
2022-09-30T06:19:19.613Z,3.47
2022-09-30T06:24:23.632Z,8.43
2022-09-30T06:29:26.348Z,4.75
2022-09-30T06:34:29.190Z,4.53
2022-09-30T06:39:33.164Z,4.38
2022-09-30T06:44:46.016Z,5.32
2022-09-30T06:49:53.225Z,4.43
2022-09-30T06:54:57.500Z,4.30
2022-09-30T07:00:00.068Z,3.25
2022-09-30T07:05:04.156Z,3.55
2022-09-30T07:10:09.154Z,6.00
2022-09-30T07:15:13.820Z,7.07
2022-09-30T07:20:16.676Z,5.47
2022-09-30T07:25:20.579Z,3.65
2022-09-30T07:30:27.282Z,5.38
2022-09-30T07:35:30.243Z,4.88
2022-09-30T07:40:34.192Z,4.43
2022-09-30T07:45:37.692Z,4.65
2022-09-30T07:50:45.327Z,4.53
2022-09-30T07:55:49.391Z,4.80
2022-09-30T08:00:52.236Z,4.63
2022-09-30T08:05:54.966Z,5.47
2022-09-30T08:11:01.205Z,9.82
2022-09-30T08:16:03.902Z,5.28
2022-09-30T08:21:07.667Z,5.88
2022-09-30T08:26:13.163Z,5.43
2022-09-30T08:31:17.208Z,5.72
2022-09-30T08:36:21.798Z,5.97
2022-09-30T08:41:53.885Z,5.88
2022-09-30T08:47:00.949Z,5.47
2022-09-30T08:52:05.414Z,5.43
2022-09-30T08:57:12.275Z,5.53
2022-09-30T09:02:19.739Z,5.00
2022-09-30T09:07:31.908Z,5.15
2022-09-30T09:12:42.639Z,5.10
2022-09-30T09:18:22.009Z,4.72
2022-09-30T09:23:22.189Z,5.00
2022-09-30T09:28:33.774Z,4.88
2022-09-30T09:33:37.264Z,4.22
2022-09-30T09:38:55.084Z,3.47
2022-09-30T09:44:03.575Z,4.03
2022-09-30T09:49:28.652Z,3.60
2022-09-30T09:54:33.092Z,3.35
2022-09-30T09:59:37.618Z,3.40
2022-09-30T10:04:50.944Z,3.55
2022-09-30T10:10:07.745Z,2.60
2022-09-30T10:15:21.784Z,2.58
2022-09-30T10:20:29.125Z,2.60
2022-09-30T10:25:32.069Z,2.63
2022-09-30T10:30:43.925Z,2.17
2022-09-30T10:36:16.129Z,2.47
2022-09-30T10:41:23.928Z,2.88
2022-09-30T10:46:30.621Z,2.67
2022-09-30T10:51:36.299Z,2.78
2022-09-30T10:56:45.028Z,2.47
2022-09-30T11:01:53.884Z,2.50
2022-09-30T11:07:06.112Z,2.50
2022-09-30T11:12:14.063Z,2.60
2022-09-30T11:17:28.706Z,1.70
2022-09-30T11:22:37.322Z,2.05
2022-09-30T11:27:49.339Z,1.88
2022-09-30T11:33:08.470Z,1.20
2022-09-30T11:38:21.250Z,1.00
2022-09-30T11:43:31.166Z,1.08
2022-09-30T11:48:46.356Z,1.60
2022-09-30T11:53:57.430Z,1.20
2022-09-30T11:59:02.131Z,1.75
2022-09-30T12:04:08.882Z,1.80
2022-09-30T12:09:16.924Z,1.80
2022-09-30T12:14:24.641Z,1.50
2022-09-30T12:19:32.312Z,1.60
2022-09-30T12:24:37.357Z,1.30
2022-09-30T12:30:00.890Z,1.55
2022-09-30T12:35:19.682Z,1.40
2022-09-30T12:40:33.609Z,1.30
2022-09-30T12:46:02.748Z,1.30
2022-09-30T12:51:08.059Z,1.08
2022-09-30T12:56:13.453Z,1.38
2022-09-30T13:01:18.401Z,1.80
2022-09-30T13:06:23.215Z,1.30
2022-09-30T13:11:42.048Z,1.70
2022-09-30T13:17:19.429Z,1.42
2022-09-30T13:22:56.979Z,1.30
2022-09-30T13:28:32.041Z,1.50
2022-09-30T13:33:44.373Z,1.30
2022-09-30T13:39:07.750Z,1.65
2022-09-30T13:44:16.257Z,1.73
2022-09-30T13:49:22.717Z,1.45
2022-09-30T13:54:31.757Z,1.33
2022-09-30T13:59:44.015Z,1.40
2022-09-30T14:05:00.831Z,1.23
2022-09-30T14:10:16.473Z,1.23
2022-09-30T14:15:47.230Z,1.50
2022-09-30T14:21:01.886Z,1.65
2022-09-30T14:26:16.071Z,1.63
2022-09-30T14:31:20.273Z,1.73
2022-09-30T14:36:23.592Z,1.90
2022-09-30T14:41:28.189Z,2.30
2022-09-30T14:46:34.249Z,2.30
2022-09-30T14:51:43.507Z,2.20
2022-09-30T14:56:48.451Z,2.22
2022-09-30T15:01:55.327Z,1.90
2022-09-30T15:07:00.293Z,1.60
2022-09-30T15:12:11.057Z,2.25
2022-09-30T15:17:19.265Z,2.35
2022-09-30T15:22:22.380Z,2.10
2022-09-30T15:27:29.868Z,2.00
2022-09-30T15:32:33.889Z,2.10
2022-09-30T15:37:36.626Z,2.35
2022-09-30T15:42:42.407Z,1.88
2022-09-30T15:47:56.478Z,2.00
2022-09-30T15:53:04.919Z,1.90
2022-09-30T15:58:33.533Z,2.00
2022-09-30T16:03:36.438Z,2.25
2022-09-30T16:08:43.952Z,2.20
2022-09-30T16:13:48.199Z,1.83
2022-09-30T16:18:52.486Z,2.40
2022-09-30T16:23:55.393Z,2.58
2022-09-30T16:29:05.864Z,4.63
2022-09-30T16:34:13.764Z,3.88
2022-09-30T16:39:17.324Z,5.07
2022-09-30T16:44:23.076Z,2.53
2022-09-30T16:49:25.947Z,2.50
2022-09-30T16:54:28.640Z,2.33
2022-09-30T16:59:33.212Z,2.97
2022-09-30T17:04:38.601Z,5.18
2022-09-30T17:09:43.109Z,3.17
2022-09-30T17:14:47.378Z,2.70
2022-09-30T17:19:50.031Z,2.60
2022-09-30T17:24:52.628Z,6.68
2022-09-30T17:29:56.682Z,3.38
2022-09-30T17:34:59.316Z,3.72
2022-09-30T17:40:22.503Z,3.10
2022-09-30T17:45:28.048Z,5.30
2022-09-30T17:50:30.772Z,4.88
2022-09-30T17:55:34.620Z,4.47
2022-09-30T18:00:38.637Z,4.93
2022-09-30T18:05:41.226Z,7.18
2022-09-30T18:10:43.842Z,5.82
2022-09-30T18:15:48.031Z,5.70
2022-09-30T18:20:51.937Z,5.25
2022-09-30T18:25:54.948Z,5.53
2022-09-30T18:31:05.778Z,7.13
2022-09-30T18:36:08.404Z,5.80
2022-09-30T18:41:11.322Z,5.72
2022-09-30T18:46:15.443Z,4.80
2022-09-30T18:51:18.573Z,4.38
2022-09-30T18:56:22.477Z,6.03
2022-09-30T19:01:27.259Z,6.97
2022-09-30T19:06:30.022Z,6.50
2022-09-30T19:11:33.537Z,4.78
2022-09-30T19:16:39.093Z,5.93
2022-09-30T19:21:42.045Z,5.28
2022-09-30T19:26:47.897Z,5.20
2022-09-30T19:31:51.949Z,4.88
2022-09-30T19:36:57.867Z,4.95
2022-09-30T19:42:04.047Z,5.78
2022-09-30T19:47:08.254Z,5.43
2022-09-30T19:52:20.140Z,8.43
2022-09-30T19:57:24.650Z,8.55
2022-09-30T20:02:28.670Z,5.90
2022-09-30T20:07:31.383Z,5.40
2022-09-30T20:12:34.099Z,6.55
2022-09-30T20:17:38.032Z,5.93
2022-09-30T20:22:40.782Z,6.75
2022-09-30T20:27:49.843Z,7.38
2022-09-30T20:32:56.018Z,10.63
2022-09-30T20:37:58.626Z,8.85
2022-09-30T20:43:04.065Z,7.72
2022-09-30T20:48:08.554Z,6.75
2022-09-30T20:53:13.633Z,6.65
2022-09-30T20:58:16.263Z,5.45
2022-09-30T21:03:20.230Z,5.32
2022-09-30T21:08:23.046Z,5.68
2022-09-30T21:13:25.654Z,5.85
2022-09-30T21:18:29.681Z,4.88
2022-09-30T21:23:33.706Z,4.65
2022-09-30T21:28:37.003Z,4.60
2022-09-30T21:33:42.311Z,4.22
2022-09-30T21:38:44.921Z,4.40
2022-09-30T21:43:48.232Z,4.65
2022-09-30T21:48:53.600Z,4.18
2022-09-30T21:53:56.162Z,4.32
2022-09-30T21:58:58.867Z,4.20
2022-09-30T22:04:03.360Z,4.03
2022-09-30T22:09:05.966Z,3.63
2022-09-30T22:14:08.608Z,3.72
2022-09-30T22:19:13.534Z,3.63
2022-09-30T22:24:16.109Z,3.80
2022-09-30T22:29:18.713Z,3.47
2022-09-30T22:34:40.127Z,3.35
2022-09-30T22:39:42.759Z,3.10
2022-09-30T22:44:46.213Z,3.22
2022-09-30T22:49:50.182Z,3.25
2022-09-30T22:54:53.792Z,2.47
2022-09-30T22:59:58.916Z,2.75
2022-09-30T23:05:02.899Z,3.00
2022-09-30T23:10:06.588Z,2.97
2022-09-30T23:15:09.826Z,3.03
2022-09-30T23:20:13.800Z,2.85
2022-09-30T23:25:16.676Z,2.95
2022-09-30T23:30:19.294Z,2.95
2022-09-30T23:35:23.250Z,2.83
2022-09-30T23:40:25.878Z,3.45
2022-09-30T23:45:28.563Z,2.90
2022-09-30T23:50:33.337Z,3.15
2022-09-30T23:55:35.966Z,3.17
